sensor_id;sensor_type;location;lat;lon;timestamp;temperature;humidity
4677;DHT22;2352;48.180;11.478;2024-02-16T00:01:29;8.60;66.30
4677;DHT22;2352;48.180;11.478;2024-02-16T00:06:33;8.60;66.50
4677;DHT22;2352;48.180;11.478;2024-02-16T00:11:37;8.40;66.70
4677;DHT22;2352;48.180;11.478;2024-02-16T00:16:40;8.40;66.60
4677;DHT22;2352;48.180;11.478;2024-02-16T00:21:44;8.50;66.60
4677;DHT22;2352;48.180;11.478;2024-02-16T00:26:47;8.40;66.80
4677;DHT22;2352;48.180;11.478;2024-02-16T00:31:50;8.40;67.10
4677;DHT22;2352;48.180;11.478;2024-02-16T00:36:54;8.30;67.20
4677;DHT22;2352;48.180;11.478;2024-02-16T00:41:58;8.30;67.10
4677;DHT22;2352;48.180;11.478;2024-02-16T00:47:01;8.30;67.00
4677;DHT22;2352;48.180;11.478;2024-02-16T00:52:05;8.20;67.20
4677;DHT22;2352;48.180;11.478;2024-02-16T00:57:09;8.20;67.50
4677;DHT22;2352;48.180;11.478;2024-02-16T01:02:12;8.20;67.70
4677;DHT22;2352;48.180;11.478;2024-02-16T01:07:17;8.20;67.70
4677;DHT22;2352;48.180;11.478;2024-02-16T01:12:20;8.10;67.90
4677;DHT22;2352;48.180;11.478;2024-02-16T01:17:23;8.20;67.90
4677;DHT22;2352;48.180;11.478;2024-02-16T01:22:27;8.20;68.10
4677;DHT22;2352;48.180;11.478;2024-02-16T01:27:31;8.20;68.20
4677;DHT22;2352;48.180;11.478;2024-02-16T01:32:34;8.20;68.20
4677;DHT22;2352;48.180;11.478;2024-02-16T01:37:38;8.10;68.30
4677;DHT22;2352;48.180;11.478;2024-02-16T01:42:42;8.20;68.40
4677;DHT22;2352;48.180;11.478;2024-02-16T01:47:47;8.20;68.80
4677;DHT22;2352;48.180;11.478;2024-02-16T01:52:52;8.00;68.90
4677;DHT22;2352;48.180;11.478;2024-02-16T01:57:55;8.10;68.70
4677;DHT22;2352;48.180;11.478;2024-02-16T02:03:00;8.10;69.00
4677;DHT22;2352;48.180;11.478;2024-02-16T02:08:11;8.10;68.80
4677;DHT22;2352;48.180;11.478;2024-02-16T02:13:14;8.20;68.90
4677;DHT22;2352;48.180;11.478;2024-02-16T02:18:17;8.10;68.80
4677;DHT22;2352;48.180;11.478;2024-02-16T02:23:22;8.20;68.80
4677;DHT22;2352;48.180;11.478;2024-02-16T02:28:25;8.10;69.10
4677;DHT22;2352;48.180;11.478;2024-02-16T02:33:28;7.90;70.00
4677;DHT22;2352;48.180;11.478;2024-02-16T02:38:33;8.10;69.50
4677;DHT22;2352;48.180;11.478;2024-02-16T02:43:36;8.20;69.50
4677;DHT22;2352;48.180;11.478;2024-02-16T02:48:39;8.30;69.20
4677;DHT22;2352;48.180;11.478;2024-02-16T02:53:43;8.10;69.70
4677;DHT22;2352;48.180;11.478;2024-02-16T02:58:47;8.00;70.00
4677;DHT22;2352;48.180;11.478;2024-02-16T03:03:50;8.10;70.00
4677;DHT22;2352;48.180;11.478;2024-02-16T03:08:54;7.90;70.60
4677;DHT22;2352;48.180;11.478;2024-02-16T03:13:58;7.80;70.40
4677;DHT22;2352;48.180;11.478;2024-02-16T03:19:01;7.90;70.50
4677;DHT22;2352;48.180;11.478;2024-02-16T03:24:06;7.90;70.10
4677;DHT22;2352;48.180;11.478;2024-02-16T03:29:09;7.90;69.90
4677;DHT22;2352;48.180;11.478;2024-02-16T03:34:12;7.90;70.20
4677;DHT22;2352;48.180;11.478;2024-02-16T03:39:16;7.90;69.90
4677;DHT22;2352;48.180;11.478;2024-02-16T03:44:22;7.90;70.00
4677;DHT22;2352;48.180;11.478;2024-02-16T03:49:25;8.00;70.00
4677;DHT22;2352;48.180;11.478;2024-02-16T03:54:31;7.90;70.00
4677;DHT22;2352;48.180;11.478;2024-02-16T03:59:34;7.90;70.10
4677;DHT22;2352;48.180;11.478;2024-02-16T04:04:37;7.90;70.00
4677;DHT22;2352;48.180;11.478;2024-02-16T04:09:41;7.90;70.10
4677;DHT22;2352;48.180;11.478;2024-02-16T04:14:44;7.90;70.50
4677;DHT22;2352;48.180;11.478;2024-02-16T04:19:47;7.70;70.80
4677;DHT22;2352;48.180;11.478;2024-02-16T04:24:52;7.90;70.70
4677;DHT22;2352;48.180;11.478;2024-02-16T04:29:55;7.90;70.80
4677;DHT22;2352;48.180;11.478;2024-02-16T04:34:58;7.90;70.70
4677;DHT22;2352;48.180;11.478;2024-02-16T04:40:03;7.90;70.90
4677;DHT22;2352;48.180;11.478;2024-02-16T04:45:10;7.90;71.00
4677;DHT22;2352;48.180;11.478;2024-02-16T04:50:13;7.60;71.50
4677;DHT22;2352;48.180;11.478;2024-02-16T04:55:18;7.90;71.20
4677;DHT22;2352;48.180;11.478;2024-02-16T05:00:21;7.90;71.20
4677;DHT22;2352;48.180;11.478;2024-02-16T05:05:24;7.90;71.40
4677;DHT22;2352;48.180;11.478;2024-02-16T05:10:28;8.00;70.90
4677;DHT22;2352;48.180;11.478;2024-02-16T05:15:31;8.10;71.10
4677;DHT22;2352;48.180;11.478;2024-02-16T05:20:34;8.10;70.80
4677;DHT22;2352;48.180;11.478;2024-02-16T05:25:39;8.10;71.00
4677;DHT22;2352;48.180;11.478;2024-02-16T05:30:42;8.10;70.70
4677;DHT22;2352;48.180;11.478;2024-02-16T05:35:46;8.20;70.80
4677;DHT22;2352;48.180;11.478;2024-02-16T05:40:54;8.10;70.40
4677;DHT22;2352;48.180;11.478;2024-02-16T05:45:58;8.10;70.70
4677;DHT22;2352;48.180;11.478;2024-02-16T05:51:01;8.20;70.40
4677;DHT22;2352;48.180;11.478;2024-02-16T05:56:07;8.20;70.50
4677;DHT22;2352;48.180;11.478;2024-02-16T06:01:12;8.20;70.80
4677;DHT22;2352;48.180;11.478;2024-02-16T06:06:16;8.10;70.90
4677;DHT22;2352;48.180;11.478;2024-02-16T06:11:20;8.20;70.80
4677;DHT22;2352;48.180;11.478;2024-02-16T06:16:23;8.10;70.70
4677;DHT22;2352;48.180;11.478;2024-02-16T06:21:26;8.20;70.70
4677;DHT22;2352;48.180;11.478;2024-02-16T06:26:31;8.20;70.50
4677;DHT22;2352;48.180;11.478;2024-02-16T06:31:33;8.20;70.60
4677;DHT22;2352;48.180;11.478;2024-02-16T06:36:36;8.10;71.10
4677;DHT22;2352;48.180;11.478;2024-02-16T06:41:45;7.90;71.50
4677;DHT22;2352;48.180;11.478;2024-02-16T06:46:48;8.10;71.20
4677;DHT22;2352;48.180;11.478;2024-02-16T06:51:51;8.20;70.60
4677;DHT22;2352;48.180;11.478;2024-02-16T06:56:55;8.30;70.50
4677;DHT22;2352;48.180;11.478;2024-02-16T07:01:58;8.40;70.40
4677;DHT22;2352;48.180;11.478;2024-02-16T07:07:01;8.40;69.90
4677;DHT22;2352;48.180;11.478;2024-02-16T07:12:07;8.50;70.10
4677;DHT22;2352;48.180;11.478;2024-02-16T07:17:11;8.60;70.10
4677;DHT22;2352;48.180;11.478;2024-02-16T07:22:14;8.70;69.70
4677;DHT22;2352;48.180;11.478;2024-02-16T07:27:18;8.90;70.00
4677;DHT22;2352;48.180;11.478;2024-02-16T07:32:21;8.90;70.10
4677;DHT22;2352;48.180;11.478;2024-02-16T07:37:24;9.00;69.40
4677;DHT22;2352;48.180;11.478;2024-02-16T07:42:28;9.10;69.20
4677;DHT22;2352;48.180;11.478;2024-02-16T07:47:32;9.20;68.50
4677;DHT22;2352;48.180;11.478;2024-02-16T07:52:35;9.10;69.20
4677;DHT22;2352;48.180;11.478;2024-02-16T07:57:39;9.30;69.30
4677;DHT22;2352;48.180;11.478;2024-02-16T08:02:42;9.40;69.10
4677;DHT22;2352;48.180;11.478;2024-02-16T08:07:46;9.50;69.20
4677;DHT22;2352;48.180;11.478;2024-02-16T08:12:51;9.60;69.00
4677;DHT22;2352;48.180;11.478;2024-02-16T08:17:54;9.70;68.90
4677;DHT22;2352;48.180;11.478;2024-02-16T08:22:57;9.90;67.80
4677;DHT22;2352;48.180;11.478;2024-02-16T08:28:02;9.90;68.70
4677;DHT22;2352;48.180;11.478;2024-02-16T08:33:06;10.20;67.30
4677;DHT22;2352;48.180;11.478;2024-02-16T08:38:09;10.20;67.00
4677;DHT22;2352;48.180;11.478;2024-02-16T08:43:14;10.30;67.50
4677;DHT22;2352;48.180;11.478;2024-02-16T08:48:17;10.40;67.70
4677;DHT22;2352;48.180;11.478;2024-02-16T08:53:20;10.70;67.20
4677;DHT22;2352;48.180;11.478;2024-02-16T08:58:25;11.00;66.30
4677;DHT22;2352;48.180;11.478;2024-02-16T09:03:28;11.20;65.70
4677;DHT22;2352;48.180;11.478;2024-02-16T09:08:31;11.30;65.70
4677;DHT22;2352;48.180;11.478;2024-02-16T09:13:39;11.60;64.90
4677;DHT22;2352;48.180;11.478;2024-02-16T09:18:42;11.80;64.90
4677;DHT22;2352;48.180;11.478;2024-02-16T09:23:46;12.00;63.90
4677;DHT22;2352;48.180;11.478;2024-02-16T09:28:50;12.20;63.00
4677;DHT22;2352;48.180;11.478;2024-02-16T09:33:53;12.20;62.40
4677;DHT22;2352;48.180;11.478;2024-02-16T09:38:56;12.30;62.70
4677;DHT22;2352;48.180;11.478;2024-02-16T09:44:01;12.70;62.40
4677;DHT22;2352;48.180;11.478;2024-02-16T09:49:04;13.30;60.80
4677;DHT22;2352;48.180;11.478;2024-02-16T09:54:08;13.60;58.70
4677;DHT22;2352;48.180;11.478;2024-02-16T09:59:13;13.90;57.40
4677;DHT22;2352;48.180;11.478;2024-02-16T10:04:16;14.30;57.40
4677;DHT22;2352;48.180;11.478;2024-02-16T10:09:23;14.50;56.20
4677;DHT22;2352;48.180;11.478;2024-02-16T10:14:27;14.80;55.60
4677;DHT22;2352;48.180;11.478;2024-02-16T10:19:33;15.20;55.30
4677;DHT22;2352;48.180;11.478;2024-02-16T10:24:43;15.60;53.50
4677;DHT22;2352;48.180;11.478;2024-02-16T10:29:48;16.00;53.60
4677;DHT22;2352;48.180;11.478;2024-02-16T10:34:54;16.20;52.30
4677;DHT22;2352;48.180;11.478;2024-02-16T10:39:59;16.30;51.30
4677;DHT22;2352;48.180;11.478;2024-02-16T10:45:05;16.40;51.30
4677;DHT22;2352;48.180;11.478;2024-02-16T10:50:09;16.60;51.70
4677;DHT22;2352;48.180;11.478;2024-02-16T10:55:13;16.90;50.60
4677;DHT22;2352;48.180;11.478;2024-02-16T11:00:19;17.30;50.40
4677;DHT22;2352;48.180;11.478;2024-02-16T11:05:33;17.50;50.30
4677;DHT22;2352;48.180;11.478;2024-02-16T11:10:36;17.70;49.80
4677;DHT22;2352;48.180;11.478;2024-02-16T11:15:41;17.90;50.00
4677;DHT22;2352;48.180;11.478;2024-02-16T11:20:44;18.30;49.00
4677;DHT22;2352;48.180;11.478;2024-02-16T11:25:50;18.40;48.30
4677;DHT22;2352;48.180;11.478;2024-02-16T11:30:54;18.70;49.10
4677;DHT22;2352;48.180;11.478;2024-02-16T11:36:04;18.90;47.70
4677;DHT22;2352;48.180;11.478;2024-02-16T11:41:10;19.40;48.30
4677;DHT22;2352;48.180;11.478;2024-02-16T11:46:15;19.50;47.90
4677;DHT22;2352;48.180;11.478;2024-02-16T11:51:19;19.80;47.40
4677;DHT22;2352;48.180;11.478;2024-02-16T11:56:22;20.20;48.10
4677;DHT22;2352;48.180;11.478;2024-02-16T12:01:27;20.40;47.30
4677;DHT22;2352;48.180;11.478;2024-02-16T12:06:31;20.40;47.70
4677;DHT22;2352;48.180;11.478;2024-02-16T12:11:36;20.30;47.10
4677;DHT22;2352;48.180;11.478;2024-02-16T12:16:40;20.10;47.50
4677;DHT22;2352;48.180;11.478;2024-02-16T12:21:43;20.10;47.60
4677;DHT22;2352;48.180;11.478;2024-02-16T12:26:46;19.90;48.00
4677;DHT22;2352;48.180;11.478;2024-02-16T12:31:51;19.80;48.10
4677;DHT22;2352;48.180;11.478;2024-02-16T12:36:54;19.60;48.60
4677;DHT22;2352;48.180;11.478;2024-02-16T12:41:57;19.50;49.50
4677;DHT22;2352;48.180;11.478;2024-02-16T12:47:01;19.90;47.90
4677;DHT22;2352;48.180;11.478;2024-02-16T12:52:05;20.00;48.40
4677;DHT22;2352;48.180;11.478;2024-02-16T12:57:12;20.40;47.70
4677;DHT22;2352;48.180;11.478;2024-02-16T13:02:17;20.90;46.30
4677;DHT22;2352;48.180;11.478;2024-02-16T13:07:20;21.00;46.00
4677;DHT22;2352;48.180;11.478;2024-02-16T13:12:23;20.90;46.20
4677;DHT22;2352;48.180;11.478;2024-02-16T13:17:27;21.00;45.60
4677;DHT22;2352;48.180;11.478;2024-02-16T13:22:30;21.40;46.30
4677;DHT22;2352;48.180;11.478;2024-02-16T13:27:33;21.80;46.00
4677;DHT22;2352;48.180;11.478;2024-02-16T13:32:38;21.70;45.80
4677;DHT22;2352;48.180;11.478;2024-02-16T13:37:42;21.70;45.80
4677;DHT22;2352;48.180;11.478;2024-02-16T13:42:45;21.50;46.50
4677;DHT22;2352;48.180;11.478;2024-02-16T13:47:49;21.30;47.10
4677;DHT22;2352;48.180;11.478;2024-02-16T13:52:52;20.90;47.10
4677;DHT22;2352;48.180;11.478;2024-02-16T13:57:57;20.80;47.80
4677;DHT22;2352;48.180;11.478;2024-02-16T14:03:01;20.40;48.00
4677;DHT22;2352;48.180;11.478;2024-02-16T14:08:05;20.10;48.80
4677;DHT22;2352;48.180;11.478;2024-02-16T14:13:10;19.90;49.30
4677;DHT22;2352;48.180;11.478;2024-02-16T14:18:14;19.90;49.20
4677;DHT22;2352;48.180;11.478;2024-02-16T14:23:30;20.40;48.20
4677;DHT22;2352;48.180;11.478;2024-02-16T14:28:33;20.30;48.10
4677;DHT22;2352;48.180;11.478;2024-02-16T14:33:37;21.60;46.60
4677;DHT22;2352;48.180;11.478;2024-02-16T14:38:41;22.00;46.30
4677;DHT22;2352;48.180;11.478;2024-02-16T14:43:44;21.50;46.10
4677;DHT22;2352;48.180;11.478;2024-02-16T14:48:49;21.60;46.30
4677;DHT22;2352;48.180;11.478;2024-02-16T14:53:53;22.30;46.00
4677;DHT22;2352;48.180;11.478;2024-02-16T14:58:56;22.60;45.00
4677;DHT22;2352;48.180;11.478;2024-02-16T15:04:01;22.40;44.90
4677;DHT22;2352;48.180;11.478;2024-02-16T15:09:04;22.50;44.50
4677;DHT22;2352;48.180;11.478;2024-02-16T15:14:07;22.60;44.50
4677;DHT22;2352;48.180;11.478;2024-02-16T15:19:11;22.40;44.50
4677;DHT22;2352;48.180;11.478;2024-02-16T15:24:14;21.20;45.60
4677;DHT22;2352;48.180;11.478;2024-02-16T15:29:17;20.90;46.30
4677;DHT22;2352;48.180;11.478;2024-02-16T15:34:22;21.20;46.10
4677;DHT22;2352;48.180;11.478;2024-02-16T15:39:25;20.50;46.80
4677;DHT22;2352;48.180;11.478;2024-02-16T15:44:28;19.50;48.30
4677;DHT22;2352;48.180;11.478;2024-02-16T15:49:33;19.00;49.30
4677;DHT22;2352;48.180;11.478;2024-02-16T15:54:35;18.60;50.10
4677;DHT22;2352;48.180;11.478;2024-02-16T15:59:38;18.20;50.70
4677;DHT22;2352;48.180;11.478;2024-02-16T16:04:43;18.00;51.10
4677;DHT22;2352;48.180;11.478;2024-02-16T16:09:46;17.90;51.50
4677;DHT22;2352;48.180;11.478;2024-02-16T16:14:49;17.70;52.20
4677;DHT22;2352;48.180;11.478;2024-02-16T16:19:54;17.70;52.10
4677;DHT22;2352;48.180;11.478;2024-02-16T16:25:00;17.50;52.40
4677;DHT22;2352;48.180;11.478;2024-02-16T16:30:04;17.40;52.30
4677;DHT22;2352;48.180;11.478;2024-02-16T16:35:08;17.20;52.80
4677;DHT22;2352;48.180;11.478;2024-02-16T16:40:12;17.10;53.30
4677;DHT22;2352;48.180;11.478;2024-02-16T16:45:15;17.00;53.20
4677;DHT22;2352;48.180;11.478;2024-02-16T16:50:20;16.60;53.90
4677;DHT22;2352;48.180;11.478;2024-02-16T16:55:23;16.40;54.40
4677;DHT22;2352;48.180;11.478;2024-02-16T17:00:26;16.40;54.40
4677;DHT22;2352;48.180;11.478;2024-02-16T17:05:31;16.40;54.70
4677;DHT22;2352;48.180;11.478;2024-02-16T17:10:34;16.30;55.10
4677;DHT22;2352;48.180;11.478;2024-02-16T17:15:37;16.30;54.90
4677;DHT22;2352;48.180;11.478;2024-02-16T17:20:41;16.30;55.00
4677;DHT22;2352;48.180;11.478;2024-02-16T17:25:44;16.20;55.10
4677;DHT22;2352;48.180;11.478;2024-02-16T17:30:47;16.00;55.80
4677;DHT22;2352;48.180;11.478;2024-02-16T17:35:51;15.90;56.10
4677;DHT22;2352;48.180;11.478;2024-02-16T17:40:54;15.90;56.40
4677;DHT22;2352;48.180;11.478;2024-02-16T17:45:57;15.90;56.30
4677;DHT22;2352;48.180;11.478;2024-02-16T17:51:01;15.90;56.40
4677;DHT22;2352;48.180;11.478;2024-02-16T17:56:04;15.90;56.60
4677;DHT22;2352;48.180;11.478;2024-02-16T18:01:10;15.70;57.70
4677;DHT22;2352;48.180;11.478;2024-02-16T18:06:14;15.70;57.40
4677;DHT22;2352;48.180;11.478;2024-02-16T18:11:17;15.50;57.70
4677;DHT22;2352;48.180;11.478;2024-02-16T18:16:22;15.40;57.90
4677;DHT22;2352;48.180;11.478;2024-02-16T18:21:29;15.50;58.00
4677;DHT22;2352;48.180;11.478;2024-02-16T18:26:32;15.40;58.40
4677;DHT22;2352;48.180;11.478;2024-02-16T18:31:36;15.40;58.50
4677;DHT22;2352;48.180;11.478;2024-02-16T18:36:40;15.40;58.60
4677;DHT22;2352;48.180;11.478;2024-02-16T18:41:43;15.20;58.60
4677;DHT22;2352;48.180;11.478;2024-02-16T18:46:46;15.10;59.10
4677;DHT22;2352;48.180;11.478;2024-02-16T18:51:51;15.20;59.10
4677;DHT22;2352;48.180;11.478;2024-02-16T18:56:54;15.00;59.00
4677;DHT22;2352;48.180;11.478;2024-02-16T19:01:57;14.90;59.30
4677;DHT22;2352;48.180;11.478;2024-02-16T19:07:05;14.90;59.10
4677;DHT22;2352;48.180;11.478;2024-02-16T19:12:08;15.00;59.20
4677;DHT22;2352;48.180;11.478;2024-02-16T19:17:12;15.00;59.20
4677;DHT22;2352;48.180;11.478;2024-02-16T19:22:17;14.90;59.40
4677;DHT22;2352;48.180;11.478;2024-02-16T19:27:20;14.90;59.40
4677;DHT22;2352;48.180;11.478;2024-02-16T19:32:22;14.90;59.70
4677;DHT22;2352;48.180;11.478;2024-02-16T19:37:27;14.80;59.60
4677;DHT22;2352;48.180;11.478;2024-02-16T19:42:30;14.80;59.80
4677;DHT22;2352;48.180;11.478;2024-02-16T19:47:33;14.80;59.50
4677;DHT22;2352;48.180;11.478;2024-02-16T19:52:37;14.60;60.00
4677;DHT22;2352;48.180;11.478;2024-02-16T19:57:40;14.50;60.40
4677;DHT22;2352;48.180;11.478;2024-02-16T20:02:47;14.40;60.50
4677;DHT22;2352;48.180;11.478;2024-02-16T20:07:54;14.50;60.40
4677;DHT22;2352;48.180;11.478;2024-02-16T20:12:57;14.50;60.40
4677;DHT22;2352;48.180;11.478;2024-02-16T20:18:00;14.70;60.20
4677;DHT22;2352;48.180;11.478;2024-02-16T20:23:06;14.70;60.20
4677;DHT22;2352;48.180;11.478;2024-02-16T20:28:09;14.80;60.30
4677;DHT22;2352;48.180;11.478;2024-02-16T20:33:13;14.90;60.10
4677;DHT22;2352;48.180;11.478;2024-02-16T20:38:18;14.90;60.20
4677;DHT22;2352;48.180;11.478;2024-02-16T20:43:21;14.80;60.40
4677;DHT22;2352;48.180;11.478;2024-02-16T20:48:24;14.80;60.70
4677;DHT22;2352;48.180;11.478;2024-02-16T20:53:29;14.90;60.60
4677;DHT22;2352;48.180;11.478;2024-02-16T20:58:31;14.70;61.00
4677;DHT22;2352;48.180;11.478;2024-02-16T21:03:34;14.90;60.90
4677;DHT22;2352;48.180;11.478;2024-02-16T21:08:40;14.60;61.30
4677;DHT22;2352;48.180;11.478;2024-02-16T21:13:47;14.70;61.20
4677;DHT22;2352;48.180;11.478;2024-02-16T21:18:50;14.70;61.50
4677;DHT22;2352;48.180;11.478;2024-02-16T21:23:55;14.70;61.50
4677;DHT22;2352;48.180;11.478;2024-02-16T21:28:58;14.50;62.00
4677;DHT22;2352;48.180;11.478;2024-02-16T21:34:04;14.70;61.70
4677;DHT22;2352;48.180;11.478;2024-02-16T21:39:09;14.70;61.90
4677;DHT22;2352;48.180;11.478;2024-02-16T21:44:12;14.60;61.90
4677;DHT22;2352;48.180;11.478;2024-02-16T21:49:15;14.60;62.20
4677;DHT22;2352;48.180;11.478;2024-02-16T21:54:20;14.50;62.30
4677;DHT22;2352;48.180;11.478;2024-02-16T21:59:23;14.50;62.60
4677;DHT22;2352;48.180;11.478;2024-02-16T22:04:26;14.40;62.70
4677;DHT22;2352;48.180;11.478;2024-02-16T22:09:30;14.40;62.90
4677;DHT22;2352;48.180;11.478;2024-02-16T22:14:34;14.40;62.90
4677;DHT22;2352;48.180;11.478;2024-02-16T22:19:37;14.40;62.90
4677;DHT22;2352;48.180;11.478;2024-02-16T22:24:41;14.40;63.20
4677;DHT22;2352;48.180;11.478;2024-02-16T22:29:44;14.30;63.60
4677;DHT22;2352;48.180;11.478;2024-02-16T22:34:47;14.40;63.30
4677;DHT22;2352;48.180;11.478;2024-02-16T22:39:52;14.40;63.50
4677;DHT22;2352;48.180;11.478;2024-02-16T22:44:55;14.50;63.20
4677;DHT22;2352;48.180;11.478;2024-02-16T22:49:58;14.50;64.20
4677;DHT22;2352;48.180;11.478;2024-02-16T22:55:03;14.40;65.60
4677;DHT22;2352;48.180;11.478;2024-02-16T23:00:07;14.30;67.10
4677;DHT22;2352;48.180;11.478;2024-02-16T23:05:25;14.20;68.10
4677;DHT22;2352;48.180;11.478;2024-02-16T23:10:29;14.20;68.10
4677;DHT22;2352;48.180;11.478;2024-02-16T23:15:35;14.10;68.60
4677;DHT22;2352;48.180;11.478;2024-02-16T23:20:39;14.20;68.40
4677;DHT22;2352;48.180;11.478;2024-02-16T23:25:43;14.10;68.70
4677;DHT22;2352;48.180;11.478;2024-02-16T23:30:47;14.10;68.80
4677;DHT22;2352;48.180;11.478;2024-02-16T23:35:50;14.10;69.10
4677;DHT22;2352;48.180;11.478;2024-02-16T23:40:55;14.10;69.30
4677;DHT22;2352;48.180;11.478;2024-02-16T23:45:58;14.00;70.00
4677;DHT22;2352;48.180;11.478;2024-02-16T23:51:05;14.00;70.50
4677;DHT22;2352;48.180;11.478;2024-02-16T23:56:10;14.00;70.40
